sensor_id;sensor_type;location;lat;lon;timestamp;pressure;altitude;pressure_sealevel;temperature;humidity
79136;BME280;68533;51.090;17.216;2023-03-14T00:00:10;98449.38;;;6.19;73.25
79136;BME280;68533;51.090;17.216;2023-03-14T00:02:56;98445.16;;;6.13;73.60
79136;BME280;68533;51.090;17.216;2023-03-14T00:05:22;98439.69;;;6.13;73.96
79136;BME280;68533;51.090;17.216;2023-03-14T00:07:48;98431.97;;;6.01;74.18
79136;BME280;68533;51.090;17.216;2023-03-14T00:10:15;98428.03;;;5.94;74.79
79136;BME280;68533;51.090;17.216;2023-03-14T00:12:41;98428.38;;;5.92;74.49
79136;BME280;68533;51.090;17.216;2023-03-14T00:15:07;98442.00;;;5.92;75.49
79136;BME280;68533;51.090;17.216;2023-03-14T00:17:35;98442.59;;;6.03;76.89
79136;BME280;68533;51.090;17.216;2023-03-14T00:20:03;98444.34;;;5.99;76.29
79136;BME280;68533;51.090;17.216;2023-03-14T00:22:31;98438.75;;;5.90;76.58
79136;BME280;68533;51.090;17.216;2023-03-14T00:24:57;98436.44;;;5.97;76.67
79136;BME280;68533;51.090;17.216;2023-03-14T00:27:23;98427.50;;;5.78;77.03
79136;BME280;68533;51.090;17.216;2023-03-14T00:29:50;98425.25;;;5.66;77.85
79136;BME280;68533;51.090;17.216;2023-03-14T00:32:16;98418.00;;;5.62;78.01
79136;BME280;68533;51.090;17.216;2023-03-14T00:34:42;98417.66;;;5.63;77.57
79136;BME280;68533;51.090;17.216;2023-03-14T00:37:08;98417.06;;;5.66;77.71
79136;BME280;68533;51.090;17.216;2023-03-14T00:39:34;98412.31;;;5.72;77.71
79136;BME280;68533;51.090;17.216;2023-03-14T00:42:00;98403.34;;;5.71;77.57
79136;BME280;68533;51.090;17.216;2023-03-14T00:44:26;98420.03;;;5.83;76.87
79136;BME280;68533;51.090;17.216;2023-03-14T00:46:52;98416.19;;;5.84;76.57
79136;BME280;68533;51.090;17.216;2023-03-14T00:49:19;98416.19;;;5.84;76.86
79136;BME280;68533;51.090;17.216;2023-03-14T00:51:45;98422.06;;;5.78;77.20
79136;BME280;68533;51.090;17.216;2023-03-14T00:54:12;98436.34;;;5.89;77.07
79136;BME280;68533;51.090;17.216;2023-03-14T00:56:38;98423.78;;;5.88;77.33
79136;BME280;68533;51.090;17.216;2023-03-14T00:59:04;98411.88;;;5.97;76.15
79136;BME280;68533;51.090;17.216;2023-03-14T01:01:30;98411.19;;;6.05;75.16
79136;BME280;68533;51.090;17.216;2023-03-14T01:03:56;98407.84;;;6.08;75.33
79136;BME280;68533;51.090;17.216;2023-03-14T01:06:25;98428.38;;;6.19;74.88
79136;BME280;68533;51.090;17.216;2023-03-14T01:08:53;98484.34;;;6.31;76.22
79136;BME280;68533;51.090;17.216;2023-03-14T01:11:24;98492.81;;;6.02;78.08
79136;BME280;68533;51.090;17.216;2023-03-14T01:13:51;98470.91;;;6.07;77.37
79136;BME280;68533;51.090;17.216;2023-03-14T01:16:18;98469.31;;;6.06;77.63
79136;BME280;68533;51.090;17.216;2023-03-14T01:18:45;98475.44;;;5.98;78.57
79136;BME280;68533;51.090;17.216;2023-03-14T01:21:18;98469.06;;;5.89;79.51
79136;BME280;68533;51.090;17.216;2023-03-14T01:23:46;98456.78;;;5.86;79.44
79136;BME280;68533;51.090;17.216;2023-03-14T01:26:16;98459.66;;;5.95;78.24
79136;BME280;68533;51.090;17.216;2023-03-14T01:28:45;98451.59;;;5.90;78.86
79136;BME280;68533;51.090;17.216;2023-03-14T01:31:12;98444.28;;;5.85;79.57
79136;BME280;68533;51.090;17.216;2023-03-14T01:33:39;98441.34;;;5.81;79.69
79136;BME280;68533;51.090;17.216;2023-03-14T01:36:06;98433.31;;;5.90;79.27
79136;BME280;68533;51.090;17.216;2023-03-14T01:38:33;98432.50;;;5.90;79.58
79136;BME280;68533;51.090;17.216;2023-03-14T01:41:00;98426.44;;;5.93;78.30
79136;BME280;68533;51.090;17.216;2023-03-14T01:43:26;98419.84;;;5.94;78.64
79136;BME280;68533;51.090;17.216;2023-03-14T01:48:57;98376.00;;;6.17;77.46
79136;BME280;68533;51.090;17.216;2023-03-14T01:54:32;98365.72;;;6.14;79.16
79136;BME280;68533;51.090;17.216;2023-03-14T02:02:50;98360.09;;;6.33;77.95
79136;BME280;68533;51.090;17.216;2023-03-14T02:05:23;98338.44;;;6.50;77.72
79136;BME280;68533;51.090;17.216;2023-03-14T02:07:56;98331.06;;;6.51;77.56
79136;BME280;68533;51.090;17.216;2023-03-14T02:10:28;98330.25;;;6.50;77.24
79136;BME280;68533;51.090;17.216;2023-03-14T02:12:55;98323.69;;;6.51;76.98
79136;BME280;68533;51.090;17.216;2023-03-14T02:15:23;98318.31;;;6.46;77.56
79136;BME280;68533;51.090;17.216;2023-03-14T02:17:49;98306.41;;;6.42;77.40
79136;BME280;68533;51.090;17.216;2023-03-14T02:22:47;98296.22;;;6.34;77.64
79136;BME280;68533;51.090;17.216;2023-03-14T02:28:16;98286.66;;;6.68;75.07
79136;BME280;68533;51.090;17.216;2023-03-14T02:30:43;98293.63;;;6.96;73.40
79136;BME280;68533;51.090;17.216;2023-03-14T02:33:14;98294.09;;;7.20;72.06
79136;BME280;68533;51.090;17.216;2023-03-14T02:35:53;98281.22;;;7.21;71.74
79136;BME280;68533;51.090;17.216;2023-03-14T02:41:09;98267.44;;;7.26;71.41
79136;BME280;68533;51.090;17.216;2023-03-14T02:43:35;98269.63;;;7.46;70.39
79136;BME280;68533;51.090;17.216;2023-03-14T02:46:03;98270.13;;;7.48;69.98
79136;BME280;68533;51.090;17.216;2023-03-14T02:48:54;98255.84;;;7.68;68.92
79136;BME280;68533;51.090;17.216;2023-03-14T02:51:23;98263.09;;;7.73;67.88
79136;BME280;68533;51.090;17.216;2023-03-14T02:53:49;98263.31;;;7.85;67.24
79136;BME280;68533;51.090;17.216;2023-03-14T02:56:15;98274.56;;;7.84;67.27
79136;BME280;68533;51.090;17.216;2023-03-14T02:58:41;98275.75;;;8.00;66.84
79136;BME280;68533;51.090;17.216;2023-03-14T03:01:07;98256.69;;;7.86;67.40
79136;BME280;68533;51.090;17.216;2023-03-14T03:03:33;98257.09;;;8.45;63.79
79136;BME280;68533;51.090;17.216;2023-03-14T03:06:00;98248.50;;;8.89;61.38
79136;BME280;68533;51.090;17.216;2023-03-14T03:08:27;98236.56;;;9.03;60.46
79136;BME280;68533;51.090;17.216;2023-03-14T03:10:54;98218.19;;;9.03;61.39
79136;BME280;68533;51.090;17.216;2023-03-14T03:13:20;98230.13;;;8.99;61.33
79136;BME280;68533;51.090;17.216;2023-03-14T03:15:46;98219.84;;;8.78;62.69
79136;BME280;68533;51.090;17.216;2023-03-14T03:18:12;98210.00;;;8.86;61.98
79136;BME280;68533;51.090;17.216;2023-03-14T03:20:39;98195.50;;;8.77;62.18
79136;BME280;68533;51.090;17.216;2023-03-14T03:23:05;98197.28;;;8.81;62.28
79136;BME280;68533;51.090;17.216;2023-03-14T03:25:31;98196.72;;;9.05;60.75
79136;BME280;68533;51.090;17.216;2023-03-14T03:27:58;98190.06;;;9.23;59.77
79136;BME280;68533;51.090;17.216;2023-03-14T03:30:24;98180.59;;;9.42;58.95
79136;BME280;68533;51.090;17.216;2023-03-14T03:32:51;98183.34;;;9.42;59.60
79136;BME280;68533;51.090;17.216;2023-03-14T03:35:17;98183.56;;;9.28;59.54
79136;BME280;68533;51.090;17.216;2023-03-14T03:37:43;98173.66;;;9.06;60.73
79136;BME280;68533;51.090;17.216;2023-03-14T03:40:09;98173.78;;;9.18;60.29
79136;BME280;68533;51.090;17.216;2023-03-14T03:42:36;98162.84;;;9.48;58.10
79136;BME280;68533;51.090;17.216;2023-03-14T03:45:02;98169.69;;;9.62;57.74
79136;BME280;68533;51.090;17.216;2023-03-14T03:47:30;98152.53;;;9.65;57.38
79136;BME280;68533;51.090;17.216;2023-03-14T03:49:57;98156.50;;;9.77;57.60
79136;BME280;68533;51.090;17.216;2023-03-14T03:52:22;98132.09;;;9.84;57.08
79136;BME280;68533;51.090;17.216;2023-03-14T03:54:49;98111.47;;;9.78;57.06
79136;BME280;68533;51.090;17.216;2023-03-14T03:57:14;98098.06;;;9.76;57.08
79136;BME280;68533;51.090;17.216;2023-03-14T03:59:40;98113.13;;;9.70;57.71
79136;BME280;68533;51.090;17.216;2023-03-14T04:02:07;98123.31;;;9.69;57.45
79136;BME280;68533;51.090;17.216;2023-03-14T04:04:34;98127.19;;;9.68;57.50
79136;BME280;68533;51.090;17.216;2023-03-14T04:06:59;98135.94;;;9.62;58.35
79136;BME280;68533;51.090;17.216;2023-03-14T04:09:27;98129.19;;;9.59;58.16
79136;BME280;68533;51.090;17.216;2023-03-14T04:11:52;98139.94;;;9.44;59.66
79136;BME280;68533;51.090;17.216;2023-03-14T04:14:19;98136.38;;;9.43;59.57
79136;BME280;68533;51.090;17.216;2023-03-14T04:16:45;98132.13;;;9.25;61.10
79136;BME280;68533;51.090;17.216;2023-03-14T04:19:11;98115.97;;;9.32;59.77
79136;BME280;68533;51.090;17.216;2023-03-14T04:21:37;98129.47;;;9.37;60.75
79136;BME280;68533;51.090;17.216;2023-03-14T04:24:06;98123.06;;;9.04;64.14
79136;BME280;68533;51.090;17.216;2023-03-14T04:26:34;98117.34;;;8.71;66.80
79136;BME280;68533;51.090;17.216;2023-03-14T04:29:01;98108.97;;;8.67;64.77
79136;BME280;68533;51.090;17.216;2023-03-14T04:31:26;98116.25;;;8.63;65.53
79136;BME280;68533;51.090;17.216;2023-03-14T04:33:53;98114.44;;;8.76;65.99
79136;BME280;68533;51.090;17.216;2023-03-14T04:36:18;98113.22;;;9.03;64.12
79136;BME280;68533;51.090;17.216;2023-03-14T04:38:45;98097.19;;;9.13;63.24
79136;BME280;68533;51.090;17.216;2023-03-14T04:41:11;98087.69;;;9.11;62.59
79136;BME280;68533;51.090;17.216;2023-03-14T04:43:37;98078.13;;;9.17;61.78
79136;BME280;68533;51.090;17.216;2023-03-14T04:46:03;98080.44;;;9.06;63.16
79136;BME280;68533;51.090;17.216;2023-03-14T04:48:29;98075.84;;;8.89;64.30
79136;BME280;68533;51.090;17.216;2023-03-14T04:50:55;98081.66;;;8.97;63.68
79136;BME280;68533;51.090;17.216;2023-03-14T04:53:21;98083.78;;;8.82;64.03
79136;BME280;68533;51.090;17.216;2023-03-14T04:55:49;98096.06;;;8.76;64.56
79136;BME280;68533;51.090;17.216;2023-03-14T04:58:15;98118.41;;;8.95;62.99
79136;BME280;68533;51.090;17.216;2023-03-14T05:00:41;98109.06;;;8.97;63.32
79136;BME280;68533;51.090;17.216;2023-03-14T05:03:07;98084.38;;;8.97;63.17
79136;BME280;68533;51.090;17.216;2023-03-14T05:05:33;98077.50;;;8.82;64.03
79136;BME280;68533;51.090;17.216;2023-03-14T05:08:00;98093.59;;;8.83;63.66
79136;BME280;68533;51.090;17.216;2023-03-14T05:10:27;98105.06;;;8.85;63.29
79136;BME280;68533;51.090;17.216;2023-03-14T05:12:55;98124.03;;;8.90;62.98
79136;BME280;68533;51.090;17.216;2023-03-14T05:15:21;98125.56;;;8.79;64.46
79136;BME280;68533;51.090;17.216;2023-03-14T05:17:47;98119.59;;;8.77;63.62
79136;BME280;68533;51.090;17.216;2023-03-14T05:20:15;98102.25;;;8.65;64.85
79136;BME280;68533;51.090;17.216;2023-03-14T05:22:45;98090.97;;;8.66;64.60
79136;BME280;68533;51.090;17.216;2023-03-14T05:25:11;98084.22;;;8.55;65.86
79136;BME280;68533;51.090;17.216;2023-03-14T05:27:37;98076.03;;;8.38;68.37
79136;BME280;68533;51.090;17.216;2023-03-14T05:30:04;98083.81;;;8.10;70.18
79136;BME280;68533;51.090;17.216;2023-03-14T05:32:32;98074.19;;;7.78;73.98
79136;BME280;68533;51.090;17.216;2023-03-14T05:34:58;98060.31;;;7.57;74.31
79136;BME280;68533;51.090;17.216;2023-03-14T05:37:26;98062.44;;;7.60;73.49
79136;BME280;68533;51.090;17.216;2023-03-14T05:39:52;98053.91;;;7.70;72.35
79136;BME280;68533;51.090;17.216;2023-03-14T05:42:18;98059.03;;;8.06;69.40
79136;BME280;68533;51.090;17.216;2023-03-14T05:44:44;98064.44;;;8.24;68.36
79136;BME280;68533;51.090;17.216;2023-03-14T05:47:12;98070.56;;;8.29;68.18
79136;BME280;68533;51.090;17.216;2023-03-14T05:49:46;98084.44;;;8.15;69.47
79136;BME280;68533;51.090;17.216;2023-03-14T05:52:13;98097.16;;;8.11;69.72
79136;BME280;68533;51.090;17.216;2023-03-14T05:54:39;98099.09;;;8.02;70.36
79136;BME280;68533;51.090;17.216;2023-03-14T05:57:05;98108.47;;;7.93;70.67
79136;BME280;68533;51.090;17.216;2023-03-14T05:59:35;98097.66;;;7.96;71.27
79136;BME280;68533;51.090;17.216;2023-03-14T06:02:01;98096.66;;;8.27;68.80
79136;BME280;68533;51.090;17.216;2023-03-14T06:04:28;98079.94;;;8.37;68.01
79136;BME280;68533;51.090;17.216;2023-03-14T06:06:57;98077.63;;;8.47;66.29
79136;BME280;68533;51.090;17.216;2023-03-14T06:09:23;98081.28;;;8.60;65.80
79136;BME280;68533;51.090;17.216;2023-03-14T06:11:50;98095.47;;;8.62;65.84
79136;BME280;68533;51.090;17.216;2023-03-14T06:14:18;98095.78;;;8.61;65.72
79136;BME280;68533;51.090;17.216;2023-03-14T06:16:45;98092.72;;;8.62;65.35
79136;BME280;68533;51.090;17.216;2023-03-14T06:19:13;98068.69;;;8.68;64.75
79136;BME280;68533;51.090;17.216;2023-03-14T06:21:39;98074.94;;;8.77;64.34
79136;BME280;68533;51.090;17.216;2023-03-14T06:24:06;98084.28;;;8.76;64.61
79136;BME280;68533;51.090;17.216;2023-03-14T06:26:32;98086.06;;;8.80;63.72
79136;BME280;68533;51.090;17.216;2023-03-14T06:29:01;98099.06;;;8.92;63.81
79136;BME280;68533;51.090;17.216;2023-03-14T06:31:32;98109.19;;;9.00;63.82
79136;BME280;68533;51.090;17.216;2023-03-14T06:33:58;98117.22;;;9.05;64.29
79136;BME280;68533;51.090;17.216;2023-03-14T06:36:25;98124.59;;;9.13;63.74
79136;BME280;68533;51.090;17.216;2023-03-14T06:38:51;98122.66;;;9.14;63.21
79136;BME280;68533;51.090;17.216;2023-03-14T06:41:17;98109.63;;;9.11;63.89
79136;BME280;68533;51.090;17.216;2023-03-14T06:43:44;98123.97;;;9.08;64.00
79136;BME280;68533;51.090;17.216;2023-03-14T06:46:14;98119.16;;;9.05;64.01
79136;BME280;68533;51.090;17.216;2023-03-14T06:48:43;98114.81;;;9.04;64.09
79136;BME280;68533;51.090;17.216;2023-03-14T06:51:09;98112.09;;;9.04;64.77
79136;BME280;68533;51.090;17.216;2023-03-14T06:53:35;98111.28;;;9.03;64.40
79136;BME280;68533;51.090;17.216;2023-03-14T06:56:02;98121.44;;;9.03;64.50
79136;BME280;68533;51.090;17.216;2023-03-14T06:58:30;98114.81;;;9.04;64.79
79136;BME280;68533;51.090;17.216;2023-03-14T07:00:57;98118.97;;;9.10;64.38
79136;BME280;68533;51.090;17.216;2023-03-14T07:03:28;98125.19;;;9.19;64.36
79136;BME280;68533;51.090;17.216;2023-03-14T07:05:55;98131.38;;;9.16;63.25
79136;BME280;68533;51.090;17.216;2023-03-14T07:08:21;98116.38;;;9.13;63.51
79136;BME280;68533;51.090;17.216;2023-03-14T07:10:48;98118.13;;;9.18;64.24
79136;BME280;68533;51.090;17.216;2023-03-14T07:13:14;98115.84;;;9.20;64.53
79136;BME280;68533;51.090;17.216;2023-03-14T07:15:41;98120.41;;;9.16;65.07
79136;BME280;68533;51.090;17.216;2023-03-14T07:18:12;98132.75;;;9.30;63.32
79136;BME280;68533;51.090;17.216;2023-03-14T07:21:05;98145.31;;;9.31;63.96
79136;BME280;68533;51.090;17.216;2023-03-14T07:23:38;98152.78;;;9.52;60.53
79136;BME280;68533;51.090;17.216;2023-03-14T07:26:07;98158.81;;;9.45;61.00
79136;BME280;68533;51.090;17.216;2023-03-14T07:28:33;98167.50;;;9.47;60.53
79136;BME280;68533;51.090;17.216;2023-03-14T07:31:00;98172.72;;;9.40;62.25
79136;BME280;68533;51.090;17.216;2023-03-14T07:33:26;98168.34;;;9.39;61.16
79136;BME280;68533;51.090;17.216;2023-03-14T07:35:52;98159.53;;;9.33;61.56
79136;BME280;68533;51.090;17.216;2023-03-14T07:38:18;98156.13;;;9.28;62.21
79136;BME280;68533;51.090;17.216;2023-03-14T07:40:45;98154.53;;;9.27;62.10
79136;BME280;68533;51.090;17.216;2023-03-14T07:43:11;98139.59;;;9.16;62.37
79136;BME280;68533;51.090;17.216;2023-03-14T07:45:37;98132.00;;;9.13;62.92
79136;BME280;68533;51.090;17.216;2023-03-14T07:48:03;98122.53;;;9.10;62.53
79136;BME280;68533;51.090;17.216;2023-03-14T07:50:30;98125.78;;;9.04;63.11
79136;BME280;68533;51.090;17.216;2023-03-14T07:52:55;98125.72;;;9.12;61.95
79136;BME280;68533;51.090;17.216;2023-03-14T07:55:23;98131.28;;;9.04;63.63
79136;BME280;68533;51.090;17.216;2023-03-14T07:57:49;98134.84;;;8.95;64.29
79136;BME280;68533;51.090;17.216;2023-03-14T08:00:15;98132.56;;;8.98;63.68
79136;BME280;68533;51.090;17.216;2023-03-14T08:02:41;98116.31;;;8.92;64.04
79136;BME280;68533;51.090;17.216;2023-03-14T08:05:11;98107.59;;;8.90;63.76
79136;BME280;68533;51.090;17.216;2023-03-14T08:07:36;98122.78;;;8.88;64.62
79136;BME280;68533;51.090;17.216;2023-03-14T08:10:04;98117.81;;;8.81;64.55
79136;BME280;68533;51.090;17.216;2023-03-14T08:12:30;98116.56;;;8.70;65.93
79136;BME280;68533;51.090;17.216;2023-03-14T08:14:56;98117.06;;;8.64;66.78
79136;BME280;68533;51.090;17.216;2023-03-14T08:17:22;98122.22;;;8.65;66.73
79136;BME280;68533;51.090;17.216;2023-03-14T08:19:48;98120.31;;;8.57;67.35
79136;BME280;68533;51.090;17.216;2023-03-14T08:22:14;98115.47;;;8.54;67.24
79136;BME280;68533;51.090;17.216;2023-03-14T08:24:41;98118.22;;;8.54;67.46
79136;BME280;68533;51.090;17.216;2023-03-14T08:27:07;98117.75;;;8.52;68.04
79136;BME280;68533;51.090;17.216;2023-03-14T08:29:34;98134.34;;;8.47;68.83
79136;BME280;68533;51.090;17.216;2023-03-14T08:32:00;98130.97;;;8.41;69.64
79136;BME280;68533;51.090;17.216;2023-03-14T08:34:28;98148.06;;;8.12;72.25
79136;BME280;68533;51.090;17.216;2023-03-14T08:36:54;98162.38;;;7.92;73.73
79136;BME280;68533;51.090;17.216;2023-03-14T08:39:24;98162.69;;;7.82;74.30
79136;BME280;68533;51.090;17.216;2023-03-14T08:41:50;98163.16;;;7.67;75.75
79136;BME280;68533;51.090;17.216;2023-03-14T08:44:16;98174.72;;;7.64;76.48
79136;BME280;68533;51.090;17.216;2023-03-14T08:46:42;98176.78;;;7.50;78.54
79136;BME280;68533;51.090;17.216;2023-03-14T08:49:08;98183.38;;;7.49;78.45
79136;BME280;68533;51.090;17.216;2023-03-14T08:51:34;98197.88;;;7.40;79.02
79136;BME280;68533;51.090;17.216;2023-03-14T08:54:00;98194.13;;;7.36;79.07
79136;BME280;68533;51.090;17.216;2023-03-14T08:56:26;98187.53;;;7.37;79.47
79136;BME280;68533;51.090;17.216;2023-03-14T08:58:52;98186.75;;;7.37;79.55
79136;BME280;68533;51.090;17.216;2023-03-14T09:01:25;98181.78;;;7.39;79.71
79136;BME280;68533;51.090;17.216;2023-03-14T09:03:51;98192.84;;;7.43;79.67
79136;BME280;68533;51.090;17.216;2023-03-14T09:06:17;98182.78;;;7.60;78.11
79136;BME280;68533;51.090;17.216;2023-03-14T09:08:46;98176.03;;;7.66;77.63
79136;BME280;68533;51.090;17.216;2023-03-14T09:11:13;98188.28;;;7.69;77.78
79136;BME280;68533;51.090;17.216;2023-03-14T09:13:39;98191.97;;;7.73;77.53
79136;BME280;68533;51.090;17.216;2023-03-14T09:16:07;98190.03;;;7.73;77.09
79136;BME280;68533;51.090;17.216;2023-03-14T09:18:33;98190.38;;;7.89;75.49
79136;BME280;68533;51.090;17.216;2023-03-14T09:20:59;98195.38;;;7.87;75.66
79136;BME280;68533;51.090;17.216;2023-03-14T09:23:25;98192.00;;;7.90;75.33
79136;BME280;68533;51.090;17.216;2023-03-14T09:25:57;98180.41;;;7.93;75.38
79136;BME280;68533;51.090;17.216;2023-03-14T09:28:29;98175.75;;;8.02;74.96
79136;BME280;68533;51.090;17.216;2023-03-14T09:31:09;98179.13;;;8.16;72.78
79136;BME280;68533;51.090;17.216;2023-03-14T09:33:38;98188.94;;;8.26;73.09
79136;BME280;68533;51.090;17.216;2023-03-14T09:36:04;98196.03;;;8.27;73.19
79136;BME280;68533;51.090;17.216;2023-03-14T09:38:31;98206.69;;;8.46;71.81
79136;BME280;68533;51.090;17.216;2023-03-14T09:41:03;98204.91;;;8.50;70.96
79136;BME280;68533;51.090;17.216;2023-03-14T09:43:42;98205.53;;;8.64;69.52
79136;BME280;68533;51.090;17.216;2023-03-14T09:46:13;98217.00;;;8.57;71.44
79136;BME280;68533;51.090;17.216;2023-03-14T09:48:43;98217.47;;;8.60;71.08
79136;BME280;68533;51.090;17.216;2023-03-14T09:51:15;98226.34;;;8.65;71.18
79136;BME280;68533;51.090;17.216;2023-03-14T09:53:48;98238.72;;;8.71;69.95
79136;BME280;68533;51.090;17.216;2023-03-14T09:56:35;98240.19;;;8.69;70.39
79136;BME280;68533;51.090;17.216;2023-03-14T09:59:03;98245.31;;;8.87;68.92
79136;BME280;68533;51.090;17.216;2023-03-14T10:01:33;98250.81;;;8.79;69.85
79136;BME280;68533;51.090;17.216;2023-03-14T10:04:10;98242.75;;;8.74;70.06
79136;BME280;68533;51.090;17.216;2023-03-14T10:06:39;98244.84;;;8.68;71.15
79136;BME280;68533;51.090;17.216;2023-03-14T10:09:05;98240.84;;;8.66;70.68
79136;BME280;68533;51.090;17.216;2023-03-14T10:11:31;98246.97;;;8.54;72.15
79136;BME280;68533;51.090;17.216;2023-03-14T10:14:06;98248.75;;;8.50;73.81
79136;BME280;68533;51.090;17.216;2023-03-14T10:16:43;98244.88;;;8.51;72.99
79136;BME280;68533;51.090;17.216;2023-03-14T10:19:15;98242.94;;;8.43;75.13
79136;BME280;68533;51.090;17.216;2023-03-14T10:21:49;98246.16;;;8.45;74.87
79136;BME280;68533;51.090;17.216;2023-03-14T10:24:35;98236.66;;;8.51;76.32
79136;BME280;68533;51.090;17.216;2023-03-14T10:27:04;98233.44;;;8.57;76.13
79136;BME280;68533;51.090;17.216;2023-03-14T10:29:33;98225.66;;;8.68;75.52
79136;BME280;68533;51.090;17.216;2023-03-14T10:32:06;98225.81;;;8.80;74.49
79136;BME280;68533;51.090;17.216;2023-03-14T10:34:38;98219.97;;;8.90;74.90
79136;BME280;68533;51.090;17.216;2023-03-14T10:37:30;98217.22;;;8.99;73.63
79136;BME280;68533;51.090;17.216;2023-03-14T10:40:03;98218.13;;;9.12;74.53
79136;BME280;68533;51.090;17.216;2023-03-14T10:42:39;98211.47;;;9.30;73.17
79136;BME280;68533;51.090;17.216;2023-03-14T10:45:39;98212.25;;;9.39;73.43
79136;BME280;68533;51.090;17.216;2023-03-14T10:51:03;98198.13;;;9.49;72.46
79136;BME280;68533;51.090;17.216;2023-03-14T10:53:50;98195.22;;;9.54;72.53
79136;BME280;68533;51.090;17.216;2023-03-14T10:56:23;98203.13;;;9.56;73.23
79136;BME280;68533;51.090;17.216;2023-03-14T10:58:51;98206.00;;;9.59;73.28
79136;BME280;68533;51.090;17.216;2023-03-14T11:10:08;98207.66;;;10.02;71.47
79136;BME280;68533;51.090;17.216;2023-03-14T11:15:57;98214.00;;;10.23;71.81
79136;BME280;68533;51.090;17.216;2023-03-14T11:29:28;98188.53;;;10.88;69.40
79136;BME280;68533;51.090;17.216;2023-03-14T11:32:00;98179.38;;;10.97;68.69
79136;BME280;68533;51.090;17.216;2023-03-14T11:34:33;98176.03;;;10.91;68.52
79136;BME280;68533;51.090;17.216;2023-03-14T11:37:16;98171.56;;;10.99;69.25
79136;BME280;68533;51.090;17.216;2023-03-14T11:39:49;98178.41;;;10.80;69.22
79136;BME280;68533;51.090;17.216;2023-03-14T11:42:19;98177.72;;;10.83;69.07
79136;BME280;68533;51.090;17.216;2023-03-14T11:44:48;98170.56;;;11.03;69.42
79136;BME280;68533;51.090;17.216;2023-03-14T11:47:22;98181.00;;;11.34;67.76
79136;BME280;68533;51.090;17.216;2023-03-14T11:50:31;98182.63;;;11.47;66.36
79136;BME280;68533;51.090;17.216;2023-03-14T11:53:03;98189.72;;;11.36;66.36
79136;BME280;68533;51.090;17.216;2023-03-14T11:55:37;98173.44;;;11.31;67.33
79136;BME280;68533;51.090;17.216;2023-03-14T11:58:15;98176.53;;;11.29;68.70
79136;BME280;68533;51.090;17.216;2023-03-14T12:00:49;98160.72;;;11.26;66.09
79136;BME280;68533;51.090;17.216;2023-03-14T12:06:05;98171.28;;;11.37;67.12
79136;BME280;68533;51.090;17.216;2023-03-14T12:09:05;98171.50;;;11.32;67.24
79136;BME280;68533;51.090;17.216;2023-03-14T12:11:40;98175.41;;;11.31;66.28
79136;BME280;68533;51.090;17.216;2023-03-14T12:14:20;98171.66;;;10.90;65.43
79136;BME280;68533;51.090;17.216;2023-03-14T12:16:57;98175.22;;;10.90;67.33
79136;BME280;68533;51.090;17.216;2023-03-14T12:19:26;98162.47;;;10.74;66.87
79136;BME280;68533;51.090;17.216;2023-03-14T12:24:45;98165.66;;;10.64;67.44
79136;BME280;68533;51.090;17.216;2023-03-14T12:41:06;98143.66;;;10.64;66.82
79136;BME280;68533;51.090;17.216;2023-03-14T12:43:38;98149.72;;;10.57;67.26
79136;BME280;68533;51.090;17.216;2023-03-14T12:48:48;98143.41;;;10.57;67.38
79136;BME280;68533;51.090;17.216;2023-03-14T12:51:20;98141.59;;;10.61;67.41
79136;BME280;68533;51.090;17.216;2023-03-14T12:59:33;98142.47;;;10.52;67.79
79136;BME280;68533;51.090;17.216;2023-03-14T13:02:13;98144.22;;;10.57;66.81
79136;BME280;68533;51.090;17.216;2023-03-14T13:04:57;98140.09;;;10.63;66.56
79136;BME280;68533;51.090;17.216;2023-03-14T13:12:51;98129.03;;;10.72;66.31
79136;BME280;68533;51.090;17.216;2023-03-14T13:15:38;98126.28;;;10.72;66.47
79136;BME280;68533;51.090;17.216;2023-03-14T13:18:37;98132.34;;;10.77;66.38
79136;BME280;68533;51.090;17.216;2023-03-14T13:23:41;98127.00;;;10.81;66.37
79136;BME280;68533;51.090;17.216;2023-03-14T13:26:19;98132.69;;;10.76;66.30
79136;BME280;68533;51.090;17.216;2023-03-14T13:28:45;98126.75;;;10.74;66.64
79136;BME280;68533;51.090;17.216;2023-03-14T13:31:22;98130.50;;;10.69;67.48
79136;BME280;68533;51.090;17.216;2023-03-14T13:34:06;98124.91;;;10.66;67.33
79136;BME280;68533;51.090;17.216;2023-03-14T13:36:35;98128.56;;;10.70;67.40
79136;BME280;68533;51.090;17.216;2023-03-14T13:39:01;98122.25;;;10.69;67.21
79136;BME280;68533;51.090;17.216;2023-03-14T13:41:28;98128.88;;;10.68;67.97
79136;BME280;68533;51.090;17.216;2023-03-14T13:44:24;98125.69;;;10.66;66.64
79136;BME280;68533;51.090;17.216;2023-03-14T13:46:48;98134.75;;;10.67;67.64
79136;BME280;68533;51.090;17.216;2023-03-14T13:49:24;98126.03;;;10.65;67.98
79136;BME280;68533;51.090;17.216;2023-03-14T13:51:51;98136.44;;;10.59;68.24
79136;BME280;68533;51.090;17.216;2023-03-14T13:54:19;98118.91;;;10.52;68.64
79136;BME280;68533;51.090;17.216;2023-03-14T13:56:46;98131.03;;;10.50;68.98
79136;BME280;68533;51.090;17.216;2023-03-14T13:59:29;98122.09;;;10.54;68.64
79136;BME280;68533;51.090;17.216;2023-03-14T14:01:59;98118.22;;;10.55;69.07
79136;BME280;68533;51.090;17.216;2023-03-14T14:04:27;98111.25;;;10.57;67.98
79136;BME280;68533;51.090;17.216;2023-03-14T14:07:07;98123.59;;;10.51;68.33
79136;BME280;68533;51.090;17.216;2023-03-14T14:09:47;98111.81;;;10.50;67.88
79136;BME280;68533;51.090;17.216;2023-03-14T14:12:26;98124.25;;;10.48;68.82
79136;BME280;68533;51.090;17.216;2023-03-14T14:15:27;98122.66;;;10.47;68.64
79136;BME280;68533;51.090;17.216;2023-03-14T14:17:56;98117.97;;;10.47;68.53
79136;BME280;68533;51.090;17.216;2023-03-14T14:20:39;98112.59;;;10.51;67.77
79136;BME280;68533;51.090;17.216;2023-03-14T14:23:14;98119.72;;;10.52;67.81
79136;BME280;68533;51.090;17.216;2023-03-14T14:25:43;98118.22;;;10.55;68.15
79136;BME280;68533;51.090;17.216;2023-03-14T14:28:35;98106.56;;;10.58;67.74
79136;BME280;68533;51.090;17.216;2023-03-14T14:31:22;98111.25;;;10.57;67.44